createdAt,value
2022-08-26T00:03:27.210Z,12.07
2022-08-26T00:08:30.288Z,11.07
2022-08-26T00:13:33.809Z,12.10
2022-08-26T00:18:38.700Z,11.80
2022-08-26T00:23:43.598Z,10.97
2022-08-26T00:28:46.230Z,10.53
2022-08-26T00:33:48.797Z,11.70
2022-08-26T00:38:52.330Z,10.30
2022-08-26T00:43:54.824Z,10.13
2022-08-26T00:49:13.400Z,9.52
2022-08-26T00:54:16.541Z,10.80
2022-08-26T00:59:20.574Z,9.10
2022-08-26T01:04:24.024Z,10.10
2022-08-26T01:09:29.352Z,10.70
2022-08-26T01:14:34.492Z,9.93
2022-08-26T01:19:46.568Z,9.55
2022-08-26T01:24:50.361Z,8.80
2022-08-26T01:29:53.728Z,9.10
2022-08-26T01:34:56.286Z,8.70
2022-08-26T01:39:59.103Z,8.80
2022-08-26T01:45:09.993Z,8.40
2022-08-26T01:50:18.048Z,9.52
2022-08-26T01:55:32.942Z,9.10
2022-08-26T02:00:37.271Z,9.30
2022-08-26T02:05:39.919Z,9.57
2022-08-26T02:10:42.745Z,9.17
2022-08-26T02:15:45.764Z,9.30
2022-08-26T02:20:51.558Z,8.82
2022-08-26T02:26:09.667Z,9.03
2022-08-26T02:31:12.275Z,9.57
2022-08-26T02:36:23.588Z,9.15
2022-08-26T02:41:31.131Z,10.03
2022-08-26T02:46:35.468Z,9.17
2022-08-26T02:51:39.776Z,7.57
2022-08-26T02:56:42.869Z,6.93
2022-08-26T03:01:45.548Z,8.30
2022-08-26T03:06:52.720Z,7.32
2022-08-26T03:11:55.655Z,7.80
2022-08-26T03:16:58.321Z,7.67
2022-08-26T03:22:02.361Z,7.93
2022-08-26T03:27:07.242Z,7.87
2022-08-26T03:32:10.641Z,7.68
2022-08-26T03:37:13.269Z,7.55
2022-08-26T03:42:16.113Z,7.57
2022-08-26T03:47:19.270Z,8.30
2022-08-26T03:52:21.831Z,6.97
2022-08-26T03:57:24.349Z,7.17
2022-08-26T04:02:27.723Z,6.68
2022-08-26T04:07:32.050Z,6.43
2022-08-26T04:12:37.518Z,6.83
2022-08-26T04:17:40.661Z,7.03
2022-08-26T04:22:43.448Z,7.20
2022-08-26T04:27:45.965Z,7.03
2022-08-26T04:32:50.992Z,7.22
2022-08-26T04:37:53.588Z,6.47
2022-08-26T04:42:56.858Z,7.57
2022-08-26T04:48:00.291Z,6.95
2022-08-26T04:53:04.936Z,6.93
2022-08-26T04:58:10.605Z,6.57
2022-08-26T05:03:13.576Z,7.18
2022-08-26T05:08:17.184Z,7.13
2022-08-26T05:13:22.059Z,6.53
2022-08-26T05:18:27.551Z,8.40
2022-08-26T05:23:32.188Z,7.67
2022-08-26T05:28:34.831Z,7.40
2022-08-26T05:33:38.306Z,8.05
2022-08-26T05:38:44.665Z,8.33
2022-08-26T05:43:47.430Z,8.33
2022-08-26T05:48:52.164Z,7.75
2022-08-26T05:53:56.012Z,8.30
2022-08-26T05:59:03.314Z,7.30
2022-08-26T06:04:08.019Z,8.82
2022-08-26T06:09:11.147Z,9.30
2022-08-26T06:14:14.054Z,10.37
2022-08-26T06:19:36.569Z,9.43
2022-08-26T06:25:02.528Z,10.45
2022-08-26T06:30:05.710Z,11.93
2022-08-26T06:35:11.889Z,12.70
2022-08-26T06:40:15.087Z,12.48
2022-08-26T06:45:18.912Z,11.87
2022-08-26T06:50:21.434Z,12.45
2022-08-26T06:55:27.071Z,13.60
2022-08-26T07:00:32.541Z,13.47
2022-08-26T07:05:37.121Z,11.90
2022-08-26T07:10:43.966Z,12.98
2022-08-26T07:15:48.263Z,12.88
2022-08-26T07:21:00.813Z,12.40
2022-08-26T07:26:28.627Z,12.10
2022-08-26T07:31:39.527Z,11.63
2022-08-26T07:36:45.923Z,13.10
2022-08-26T07:41:48.743Z,12.68
2022-08-26T07:46:52.443Z,13.43
2022-08-26T07:51:56.743Z,11.93
2022-08-26T07:56:59.617Z,12.67
2022-08-26T08:02:03.524Z,10.98
2022-08-26T08:07:07.419Z,11.50
2022-08-26T08:12:14.405Z,10.27
2022-08-26T08:17:18.531Z,9.68
2022-08-26T08:22:24.059Z,9.00
2022-08-26T08:27:27.341Z,10.20
2022-08-26T08:32:30.511Z,9.93
2022-08-26T08:37:33.487Z,9.23
2022-08-26T08:42:48.549Z,9.93
2022-08-26T08:53:34.124Z,8.82
2022-08-26T08:59:47.267Z,10.18
2022-08-26T09:05:15.129Z,9.77
2022-08-26T09:11:08.629Z,10.35
2022-08-26T09:16:21.352Z,10.13
2022-08-26T09:21:26.299Z,10.07
2022-08-26T09:26:30.927Z,9.43
2022-08-26T09:31:36.210Z,10.15
2022-08-26T09:36:51.470Z,9.70
2022-08-26T09:42:08.601Z,9.07
2022-08-26T09:47:12.253Z,9.02
2022-08-26T09:52:22.383Z,9.13
2022-08-26T09:57:30.402Z,7.73
2022-08-26T10:02:33.300Z,7.38
2022-08-26T10:07:40.394Z,7.50
2022-08-26T10:13:10.313Z,6.93
2022-08-26T10:18:35.537Z,7.22
2022-08-26T10:23:57.006Z,8.10
2022-08-26T10:29:07.291Z,8.30
2022-08-26T10:34:14.739Z,7.50
2022-08-26T10:39:35.918Z,7.65
2022-08-26T10:44:41.031Z,7.95
2022-08-26T10:49:48.418Z,6.87
2022-08-26T10:55:07.055Z,6.53
2022-08-26T11:00:38.809Z,6.57
2022-08-26T11:05:41.436Z,6.20
2022-08-26T11:10:59.977Z,5.90
2022-08-26T11:16:06.759Z,6.22
2022-08-26T11:21:50.810Z,5.70
2022-08-26T11:26:56.330Z,5.80
2022-08-26T11:31:59.285Z,6.28
2022-08-26T11:37:03.013Z,5.82
2022-08-26T11:42:35.665Z,5.90
2022-08-26T11:47:38.263Z,5.07
2022-08-26T11:52:41.102Z,4.78
2022-08-26T11:57:51.606Z,4.67
2022-08-26T12:02:55.751Z,4.55
2022-08-26T12:08:01.349Z,4.88
2022-08-26T12:13:05.255Z,5.13
2022-08-26T12:18:20.606Z,5.67
2022-08-26T12:23:37.683Z,4.82
2022-08-26T12:28:58.448Z,4.10
2022-08-26T12:34:04.202Z,4.90
2022-08-26T12:39:17.669Z,4.97
2022-08-26T12:44:58.833Z,5.05
2022-08-26T12:50:04.128Z,5.30
2022-08-26T12:55:21.122Z,5.63
2022-08-26T13:00:38.193Z,5.53
2022-08-26T13:05:40.720Z,4.53
2022-08-26T13:11:01.145Z,4.70
2022-08-26T13:16:03.940Z,4.72
2022-08-26T13:21:22.060Z,5.43
2022-08-26T13:26:24.697Z,4.37
2022-08-26T13:31:30.608Z,4.57
2022-08-26T13:36:42.285Z,4.40
2022-08-26T13:41:44.909Z,3.87
2022-08-26T13:46:47.503Z,3.70
2022-08-26T13:51:50.011Z,4.57
2022-08-26T13:56:52.685Z,3.83
2022-08-26T14:01:55.292Z,4.27
2022-08-26T14:07:04.584Z,4.32
2022-08-26T14:12:07.781Z,4.05
2022-08-26T14:17:10.992Z,4.40
2022-08-26T14:22:16.037Z,4.68
2022-08-26T14:27:18.580Z,4.43
2022-08-26T14:32:27.758Z,5.27
2022-08-26T14:37:30.385Z,4.57
2022-08-26T14:42:34.018Z,5.03
2022-08-26T14:47:37.797Z,5.77
2022-08-26T14:52:59.543Z,5.27
2022-08-26T14:58:03.141Z,5.13
2022-08-26T15:03:06.093Z,5.25
2022-08-26T15:08:10.965Z,4.63
2022-08-26T15:13:13.640Z,5.25
2022-08-26T15:18:16.168Z,5.07
2022-08-26T15:23:18.834Z,4.50
2022-08-26T15:28:23.943Z,4.80
2022-08-26T15:33:26.509Z,4.30
2022-08-26T15:38:33.716Z,4.33
2022-08-26T15:43:37.578Z,5.00
2022-08-26T15:48:40.539Z,4.45
2022-08-26T15:53:43.165Z,3.90
2022-08-26T15:58:45.822Z,4.13
2022-08-26T16:03:50.263Z,4.22
2022-08-26T16:08:53.013Z,5.03
2022-08-26T16:13:56.276Z,4.80
2022-08-26T16:18:58.831Z,5.90
2022-08-26T16:24:02.076Z,5.90
2022-08-26T16:29:08.260Z,7.10
2022-08-26T16:34:11.165Z,5.70
2022-08-26T16:39:14.512Z,6.63
2022-08-26T16:44:17.975Z,6.10
2022-08-26T16:49:25.668Z,4.63
2022-08-26T16:54:28.262Z,5.03
2022-08-26T16:59:39.357Z,6.88
2022-08-26T17:04:46.176Z,6.80
2022-08-26T17:09:49.925Z,7.72
2022-08-26T17:14:54.846Z,5.95
2022-08-26T17:19:57.862Z,4.67
2022-08-26T17:25:01.702Z,6.03
2022-08-26T17:30:05.987Z,5.90
2022-08-26T17:35:08.965Z,6.65
2022-08-26T17:40:24.097Z,5.97
2022-08-26T17:45:30.227Z,6.13
2022-08-26T17:50:33.470Z,6.25
2022-08-26T17:55:36.003Z,7.20
2022-08-26T18:00:39.157Z,5.95
2022-08-26T18:05:43.801Z,6.50
2022-08-26T18:10:46.666Z,6.73
2022-08-26T18:15:49.266Z,5.95
2022-08-26T18:20:54.116Z,6.43
2022-08-26T18:26:04.756Z,6.90
2022-08-26T18:31:10.944Z,5.77
2022-08-26T18:36:30.739Z,7.10
2022-08-26T18:41:34.878Z,6.97
2022-08-26T18:46:37.483Z,7.10
2022-08-26T18:51:40.813Z,7.40
2022-08-26T18:56:43.899Z,7.07
2022-08-26T19:01:50.987Z,8.27
2022-08-26T19:06:54.785Z,6.93
2022-08-26T19:11:58.134Z,7.72
2022-08-26T19:17:01.626Z,6.13
2022-08-26T19:22:04.723Z,8.02
2022-08-26T19:27:14.584Z,8.82
2022-08-26T19:32:17.876Z,7.50
2022-08-26T19:37:21.225Z,8.15
2022-08-26T19:42:23.726Z,7.57
2022-08-26T19:47:28.598Z,8.23
2022-08-26T19:52:31.403Z,4.88
2022-08-26T19:57:43.461Z,6.87
2022-08-26T20:14:23.158Z,6.67
2022-08-26T20:25:11.974Z,6.53
2022-08-26T20:30:14.984Z,5.97
2022-08-26T20:35:19.212Z,7.13
2022-08-26T20:40:22.609Z,7.45
2022-08-26T20:45:26.079Z,6.47
2022-08-26T20:50:28.742Z,6.03
2022-08-26T20:55:31.444Z,6.95
2022-08-26T21:00:34.154Z,7.23
2022-08-26T21:05:36.774Z,6.30
2022-08-26T21:10:42.159Z,6.63
2022-08-26T21:15:45.480Z,7.43
2022-08-26T21:20:48.122Z,7.30
2022-08-26T21:25:50.757Z,7.20
2022-08-26T21:30:54.788Z,7.57
2022-08-26T21:35:57.456Z,6.00
2022-08-26T21:41:08.911Z,7.85
2022-08-26T21:46:17.055Z,6.83
2022-08-26T21:51:22.437Z,6.77
2022-08-26T21:56:27.419Z,7.90
2022-08-26T22:01:35.105Z,7.27
2022-08-26T22:06:49.018Z,7.50
2022-08-26T22:12:11.390Z,8.15
2022-08-26T22:17:14.412Z,7.73
2022-08-26T22:22:21.394Z,7.43
2022-08-26T22:27:23.896Z,8.20
2022-08-26T22:32:26.429Z,8.10
2022-08-26T22:37:29.650Z,7.50
2022-08-26T22:42:32.490Z,8.63
2022-08-26T22:47:38.782Z,8.43
2022-08-26T22:52:42.058Z,8.23
2022-08-26T22:57:47.507Z,9.18
2022-08-26T23:02:50.046Z,8.07
2022-08-26T23:07:52.647Z,7.27
2022-08-26T23:12:55.441Z,7.25
2022-08-26T23:17:58.675Z,6.70
2022-08-26T23:23:02.018Z,7.50
2022-08-26T23:28:04.692Z,7.50
2022-08-26T23:33:07.312Z,7.50
2022-08-26T23:38:10.185Z,7.60
2022-08-26T23:43:16.546Z,7.78
2022-08-26T23:48:19.467Z,8.07
2022-08-26T23:53:23.496Z,8.40
2022-08-26T23:58:26.280Z,7.80
